sensor_id;sensor_type;location;lat;lon;timestamp;temperature;humidity
44894;DHT22;30625;52.206;21.030;2023-02-28T00:00:01;0.00;96.80
44894;DHT22;30625;52.206;21.030;2023-02-28T00:02:34;-0.90;96.20
44894;DHT22;30625;52.206;21.030;2023-02-28T00:05:03;-0.80;96.20
44894;DHT22;30625;52.206;21.030;2023-02-28T00:07:32;-0.90;95.80
44894;DHT22;30625;52.206;21.030;2023-02-28T00:10:10;0.60;96.80
44894;DHT22;30625;52.206;21.030;2023-02-28T00:12:40;-0.80;96.70
44894;DHT22;30625;52.206;21.030;2023-02-28T00:15:16;0.40;96.60
44894;DHT22;30625;52.206;21.030;2023-02-28T00:17:42;-0.20;96.90
44894;DHT22;30625;52.206;21.030;2023-02-28T00:20:08;-2.30;96.60
44894;DHT22;30625;52.206;21.030;2023-02-28T00:22:36;-0.90;96.80
44894;DHT22;30625;52.206;21.030;2023-02-28T00:25:03;0.60;97.30
44894;DHT22;30625;52.206;21.030;2023-02-28T00:27:29;-1.00;97.10
44894;DHT22;30625;52.206;21.030;2023-02-28T00:29:55;-1.00;97.30
44894;DHT22;30625;52.206;21.030;2023-02-28T00:32:21;0.40;97.70
44894;DHT22;30625;52.206;21.030;2023-02-28T00:34:49;-0.90;97.20
44894;DHT22;30625;52.206;21.030;2023-02-28T00:37:15;-0.10;97.60
44894;DHT22;30625;52.206;21.030;2023-02-28T00:39:40;-1.00;97.00
44894;DHT22;30625;52.206;21.030;2023-02-28T00:42:07;-0.90;97.70
44894;DHT22;30625;52.206;21.030;2023-02-28T00:44:33;-0.90;97.50
44894;DHT22;30625;52.206;21.030;2023-02-28T00:46:59;-0.90;97.70
44894;DHT22;30625;52.206;21.030;2023-02-28T00:49:26;-1.00;97.50
44894;DHT22;30625;52.206;21.030;2023-02-28T00:51:53;0.70;98.00
44894;DHT22;30625;52.206;21.030;2023-02-28T00:54:19;-1.10;97.50
44894;DHT22;30625;52.206;21.030;2023-02-28T00:56:45;-1.10;97.10
44894;DHT22;30625;52.206;21.030;2023-02-28T00:59:11;-1.10;97.80
44894;DHT22;30625;52.206;21.030;2023-02-28T01:01:37;-1.10;98.00
44894;DHT22;30625;52.206;21.030;2023-02-28T01:04:02;-1.00;98.30
44894;DHT22;30625;52.206;21.030;2023-02-28T01:06:28;-1.00;98.40
44894;DHT22;30625;52.206;21.030;2023-02-28T01:08:54;-1.10;98.70
44894;DHT22;30625;52.206;21.030;2023-02-28T01:11:19;-1.20;98.10
44894;DHT22;30625;52.206;21.030;2023-02-28T01:13:46;-1.30;98.40
44894;DHT22;30625;52.206;21.030;2023-02-28T01:16:12;0.00;98.80
44894;DHT22;30625;52.206;21.030;2023-02-28T01:18:39;-2.60;98.20
44894;DHT22;30625;52.206;21.030;2023-02-28T01:21:06;-1.40;98.70
44894;DHT22;30625;52.206;21.030;2023-02-28T01:23:33;-1.10;98.90
44894;DHT22;30625;52.206;21.030;2023-02-28T01:26:04;-1.30;98.40
44894;DHT22;30625;52.206;21.030;2023-02-28T01:28:30;-1.30;98.60
44894;DHT22;30625;52.206;21.030;2023-02-28T01:30:55;-1.30;99.10
44894;DHT22;30625;52.206;21.030;2023-02-28T01:33:21;-1.30;99.50
44894;DHT22;30625;52.206;21.030;2023-02-28T01:35:47;-1.20;99.50
44894;DHT22;30625;52.206;21.030;2023-02-28T01:38:13;-1.20;99.50
44894;DHT22;30625;52.206;21.030;2023-02-28T01:40:38;-1.20;99.50
44894;DHT22;30625;52.206;21.030;2023-02-28T01:43:17;-1.20;99.80
44894;DHT22;30625;52.206;21.030;2023-02-28T01:45:44;-1.20;99.90
44894;DHT22;30625;52.206;21.030;2023-02-28T01:48:09;-1.20;99.90
44894;DHT22;30625;52.206;21.030;2023-02-28T01:50:47;-1.30;99.90
44894;DHT22;30625;52.206;21.030;2023-02-28T01:53:18;-1.30;99.90
44894;DHT22;30625;52.206;21.030;2023-02-28T01:55:47;-1.30;99.70
44894;DHT22;30625;52.206;21.030;2023-02-28T01:58:17;-1.30;99.90
44894;DHT22;30625;52.206;21.030;2023-02-28T02:00:46;-1.30;99.90
44894;DHT22;30625;52.206;21.030;2023-02-28T02:03:15;-1.40;99.90
44894;DHT22;30625;52.206;21.030;2023-02-28T02:05:45;-1.40;99.90
44894;DHT22;30625;52.206;21.030;2023-02-28T02:08:17;-1.30;99.90
44894;DHT22;30625;52.206;21.030;2023-02-28T02:10:52;-1.40;99.90
44894;DHT22;30625;52.206;21.030;2023-02-28T02:19:14;-1.40;99.90
44894;DHT22;30625;52.206;21.030;2023-02-28T02:25:05;-1.40;99.90
44894;DHT22;30625;52.206;21.030;2023-02-28T02:36:22;-1.40;99.90
44894;DHT22;30625;52.206;21.030;2023-02-28T02:39:14;-1.40;99.90
44894;DHT22;30625;52.206;21.030;2023-02-28T02:41:49;-1.20;99.90
44894;DHT22;30625;52.206;21.030;2023-02-28T02:44:40;-1.50;99.90
44894;DHT22;30625;52.206;21.030;2023-02-28T02:47:14;-1.50;99.90
44894;DHT22;30625;52.206;21.030;2023-02-28T02:49:45;-1.50;99.90
44894;DHT22;30625;52.206;21.030;2023-02-28T02:52:15;-1.60;99.90
44894;DHT22;30625;52.206;21.030;2023-02-28T02:54:45;-1.60;99.90
44894;DHT22;30625;52.206;21.030;2023-02-28T02:57:20;-1.50;99.90
44894;DHT22;30625;52.206;21.030;2023-02-28T02:59:48;-1.50;99.90
44894;DHT22;30625;52.206;21.030;2023-02-28T03:02:17;-1.50;99.90
44894;DHT22;30625;52.206;21.030;2023-02-28T03:04:51;-0.10;99.90
44894;DHT22;30625;52.206;21.030;2023-02-28T03:07:17;-1.50;99.90
44894;DHT22;30625;52.206;21.030;2023-02-28T03:09:51;-1.60;99.90
44894;DHT22;30625;52.206;21.030;2023-02-28T03:12:18;-1.60;99.90
44894;DHT22;30625;52.206;21.030;2023-02-28T03:14:56;-1.60;99.90
44894;DHT22;30625;52.206;21.030;2023-02-28T03:17:49;-1.60;99.90
44894;DHT22;30625;52.206;21.030;2023-02-28T03:23:19;-1.50;99.90
44894;DHT22;30625;52.206;21.030;2023-02-28T03:25:57;-1.60;99.90
44894;DHT22;30625;52.206;21.030;2023-02-28T03:28:45;-1.60;99.90
44894;DHT22;30625;52.206;21.030;2023-02-28T03:31:39;-1.60;99.90
44894;DHT22;30625;52.206;21.030;2023-02-28T03:36:48;-1.60;99.90
44894;DHT22;30625;52.206;21.030;2023-02-28T03:39:49;-1.60;99.90
44894;DHT22;30625;52.206;21.030;2023-02-28T03:42:23;-1.60;99.90
44894;DHT22;30625;52.206;21.030;2023-02-28T03:44:54;-1.70;99.90
44894;DHT22;30625;52.206;21.030;2023-02-28T03:47:38;-1.60;99.90
44894;DHT22;30625;52.206;21.030;2023-02-28T03:50:08;-1.70;99.90
44894;DHT22;30625;52.206;21.030;2023-02-28T03:52:51;-1.70;99.90
44894;DHT22;30625;52.206;21.030;2023-02-28T03:55:18;-1.70;99.90
44894;DHT22;30625;52.206;21.030;2023-02-28T04:00:40;-1.10;99.90
44894;DHT22;30625;52.206;21.030;2023-02-28T04:03:08;-2.00;99.90
44894;DHT22;30625;52.206;21.030;2023-02-28T04:05:52;-1.70;99.90
44894;DHT22;30625;52.206;21.030;2023-02-28T04:08:18;-1.70;99.90
44894;DHT22;30625;52.206;21.030;2023-02-28T04:10:46;-1.70;99.90
44894;DHT22;30625;52.206;21.030;2023-02-28T04:13:13;-1.70;99.90
44894;DHT22;30625;52.206;21.030;2023-02-28T04:15:39;-1.80;99.90
44894;DHT22;30625;52.206;21.030;2023-02-28T04:18:04;-1.70;99.90
44894;DHT22;30625;52.206;21.030;2023-02-28T04:20:31;-1.80;99.90
44894;DHT22;30625;52.206;21.030;2023-02-28T04:22:56;-1.80;99.90
44894;DHT22;30625;52.206;21.030;2023-02-28T04:25:22;-1.80;99.90
44894;DHT22;30625;52.206;21.030;2023-02-28T04:27:47;-1.80;99.90
44894;DHT22;30625;52.206;21.030;2023-02-28T04:30:13;-1.20;99.90
44894;DHT22;30625;52.206;21.030;2023-02-28T04:32:38;-1.80;99.90
44894;DHT22;30625;52.206;21.030;2023-02-28T04:35:04;-1.90;99.90
44894;DHT22;30625;52.206;21.030;2023-02-28T04:37:30;-2.00;99.90
44894;DHT22;30625;52.206;21.030;2023-02-28T04:40:00;-1.90;99.90
44894;DHT22;30625;52.206;21.030;2023-02-28T04:42:26;-2.00;99.90
44894;DHT22;30625;52.206;21.030;2023-02-28T04:44:52;-1.90;99.90
44894;DHT22;30625;52.206;21.030;2023-02-28T04:47:17;-1.90;99.90
44894;DHT22;30625;52.206;21.030;2023-02-28T04:49:43;-1.90;99.90
44894;DHT22;30625;52.206;21.030;2023-02-28T04:52:08;-2.00;99.90
44894;DHT22;30625;52.206;21.030;2023-02-28T04:54:35;-2.10;99.90
44894;DHT22;30625;52.206;21.030;2023-02-28T04:57:01;-1.30;99.90
44894;DHT22;30625;52.206;21.030;2023-02-28T04:59:27;-1.90;99.90
44894;DHT22;30625;52.206;21.030;2023-02-28T05:01:52;-1.90;99.90
44894;DHT22;30625;52.206;21.030;2023-02-28T05:04:18;-1.90;99.90
44894;DHT22;30625;52.206;21.030;2023-02-28T05:06:44;-2.00;99.90
44894;DHT22;30625;52.206;21.030;2023-02-28T05:09:10;-2.00;99.90
44894;DHT22;30625;52.206;21.030;2023-02-28T05:11:39;-2.00;99.90
44894;DHT22;30625;52.206;21.030;2023-02-28T05:14:09;-1.00;99.90
44894;DHT22;30625;52.206;21.030;2023-02-28T05:16:35;-2.20;99.90
44894;DHT22;30625;52.206;21.030;2023-02-28T05:19:01;-1.90;99.90
44894;DHT22;30625;52.206;21.030;2023-02-28T05:21:29;-1.90;99.90
44894;DHT22;30625;52.206;21.030;2023-02-28T05:24:00;-1.90;99.90
44894;DHT22;30625;52.206;21.030;2023-02-28T05:26:26;-1.40;99.90
44894;DHT22;30625;52.206;21.030;2023-02-28T05:28:53;-1.50;99.90
44894;DHT22;30625;52.206;21.030;2023-02-28T05:31:22;-1.90;99.90
44894;DHT22;30625;52.206;21.030;2023-02-28T05:33:48;-1.90;99.90
44894;DHT22;30625;52.206;21.030;2023-02-28T05:36:13;-1.90;99.90
44894;DHT22;30625;52.206;21.030;2023-02-28T05:38:39;-2.00;99.90
44894;DHT22;30625;52.206;21.030;2023-02-28T05:41:09;-1.90;99.90
44894;DHT22;30625;52.206;21.030;2023-02-28T05:43:38;-1.90;99.90
44894;DHT22;30625;52.206;21.030;2023-02-28T05:46:09;-1.90;99.90
44894;DHT22;30625;52.206;21.030;2023-02-28T05:48:36;-1.90;99.90
44894;DHT22;30625;52.206;21.030;2023-02-28T05:51:03;-1.90;99.90
44894;DHT22;30625;52.206;21.030;2023-02-28T05:53:30;-1.80;99.90
44894;DHT22;30625;52.206;21.030;2023-02-28T05:55:55;-1.80;99.90
44894;DHT22;30625;52.206;21.030;2023-02-28T05:58:21;-1.70;99.90
44894;DHT22;30625;52.206;21.030;2023-02-28T06:00:47;-1.80;99.90
44894;DHT22;30625;52.206;21.030;2023-02-28T06:03:13;-1.80;99.90
44894;DHT22;30625;52.206;21.030;2023-02-28T06:05:38;-1.70;99.90
44894;DHT22;30625;52.206;21.030;2023-02-28T06:08:04;-1.70;99.90
44894;DHT22;30625;52.206;21.030;2023-02-28T06:10:35;-1.70;99.90
44894;DHT22;30625;52.206;21.030;2023-02-28T06:13:02;-1.60;99.90
44894;DHT22;30625;52.206;21.030;2023-02-28T06:15:28;-1.60;99.90
44894;DHT22;30625;52.206;21.030;2023-02-28T06:17:54;-1.50;99.90
44894;DHT22;30625;52.206;21.030;2023-02-28T06:20:23;-1.50;99.90
44894;DHT22;30625;52.206;21.030;2023-02-28T06:22:49;-1.40;99.90
44894;DHT22;30625;52.206;21.030;2023-02-28T06:25:17;-1.40;99.90
44894;DHT22;30625;52.206;21.030;2023-02-28T06:27:43;-1.40;99.90
44894;DHT22;30625;52.206;21.030;2023-02-28T06:30:10;-1.30;99.90
44894;DHT22;30625;52.206;21.030;2023-02-28T06:32:36;-1.20;99.90
44894;DHT22;30625;52.206;21.030;2023-02-28T06:35:02;-1.30;99.90
44894;DHT22;30625;52.206;21.030;2023-02-28T06:37:31;-1.10;99.90
44894;DHT22;30625;52.206;21.030;2023-02-28T06:39:57;-1.00;99.90
44894;DHT22;30625;52.206;21.030;2023-02-28T06:42:23;-0.90;99.90
44894;DHT22;30625;52.206;21.030;2023-02-28T06:44:55;-0.90;99.90
44894;DHT22;30625;52.206;21.030;2023-02-28T06:47:21;-1.00;99.90
44894;DHT22;30625;52.206;21.030;2023-02-28T06:49:46;-0.70;99.90
44894;DHT22;30625;52.206;21.030;2023-02-28T06:52:12;-0.80;99.90
44894;DHT22;30625;52.206;21.030;2023-02-28T06:54:38;-0.40;99.90
44894;DHT22;30625;52.206;21.030;2023-02-28T06:57:03;-0.60;99.90
44894;DHT22;30625;52.206;21.030;2023-02-28T06:59:29;-0.60;99.90
44894;DHT22;30625;52.206;21.030;2023-02-28T07:01:55;-0.50;99.90
44894;DHT22;30625;52.206;21.030;2023-02-28T07:04:21;-0.10;99.90
44894;DHT22;30625;52.206;21.030;2023-02-28T07:06:47;0.20;99.90
44894;DHT22;30625;52.206;21.030;2023-02-28T07:09:12;0.60;99.90
44894;DHT22;30625;52.206;21.030;2023-02-28T07:11:40;1.10;99.90
44894;DHT22;30625;52.206;21.030;2023-02-28T07:14:07;1.40;99.90
44894;DHT22;30625;52.206;21.030;2023-02-28T07:16:32;1.50;96.20
44894;DHT22;30625;52.206;21.030;2023-02-28T07:18:58;2.00;96.40
44894;DHT22;30625;52.206;21.030;2023-02-28T07:21:24;1.60;96.50
44894;DHT22;30625;52.206;21.030;2023-02-28T07:23:50;2.80;94.80
44894;DHT22;30625;52.206;21.030;2023-02-28T07:26:20;1.50;94.10
44894;DHT22;30625;52.206;21.030;2023-02-28T07:28:47;0.90;93.60
44894;DHT22;30625;52.206;21.030;2023-02-28T07:31:14;1.40;93.30
44894;DHT22;30625;52.206;21.030;2023-02-28T07:33:40;1.70;92.60
44894;DHT22;30625;52.206;21.030;2023-02-28T07:36:09;1.90;92.10
44894;DHT22;30625;52.206;21.030;2023-02-28T07:38:39;2.10;91.80
44894;DHT22;30625;52.206;21.030;2023-02-28T07:41:05;2.20;91.20
44894;DHT22;30625;52.206;21.030;2023-02-28T07:43:32;2.30;91.60
44894;DHT22;30625;52.206;21.030;2023-02-28T07:46:09;2.50;92.60
44894;DHT22;30625;52.206;21.030;2023-02-28T07:48:35;2.70;91.40
44894;DHT22;30625;52.206;21.030;2023-02-28T07:51:02;2.80;90.70
44894;DHT22;30625;52.206;21.030;2023-02-28T07:53:28;2.60;90.00
44894;DHT22;30625;52.206;21.030;2023-02-28T07:55:58;2.50;91.00
44894;DHT22;30625;52.206;21.030;2023-02-28T07:58:24;2.90;90.70
44894;DHT22;30625;52.206;21.030;2023-02-28T08:00:50;3.70;88.70
44894;DHT22;30625;52.206;21.030;2023-02-28T08:03:20;4.80;85.20
44894;DHT22;30625;52.206;21.030;2023-02-28T08:05:47;5.70;81.90
44894;DHT22;30625;52.206;21.030;2023-02-28T08:08:13;6.50;77.10
44894;DHT22;30625;52.206;21.030;2023-02-28T08:10:39;7.20;75.60
44894;DHT22;30625;52.206;21.030;2023-02-28T08:13:04;7.90;73.70
44894;DHT22;30625;52.206;21.030;2023-02-28T08:15:31;8.00;69.20
44894;DHT22;30625;52.206;21.030;2023-02-28T08:17:57;8.20;69.80
44894;DHT22;30625;52.206;21.030;2023-02-28T08:20:24;8.30;66.70
44894;DHT22;30625;52.206;21.030;2023-02-28T08:22:50;8.00;65.90
44894;DHT22;30625;52.206;21.030;2023-02-28T08:25:16;7.20;66.10
44894;DHT22;30625;52.206;21.030;2023-02-28T08:27:42;7.10;67.40
44894;DHT22;30625;52.206;21.030;2023-02-28T08:30:13;6.80;69.80
44894;DHT22;30625;52.206;21.030;2023-02-28T08:32:39;6.80;69.00
44894;DHT22;30625;52.206;21.030;2023-02-28T08:35:08;6.60;69.50
44894;DHT22;30625;52.206;21.030;2023-02-28T08:37:34;7.00;70.70
44894;DHT22;30625;52.206;21.030;2023-02-28T08:40:00;7.20;70.40
44894;DHT22;30625;52.206;21.030;2023-02-28T08:42:26;7.40;68.80
44894;DHT22;30625;52.206;21.030;2023-02-28T08:44:51;7.30;68.60
44894;DHT22;30625;52.206;21.030;2023-02-28T08:47:17;6.90;67.20
44894;DHT22;30625;52.206;21.030;2023-02-28T08:49:43;6.90;68.50
44894;DHT22;30625;52.206;21.030;2023-02-28T08:52:08;6.70;67.00
44894;DHT22;30625;52.206;21.030;2023-02-28T08:54:35;6.50;67.80
44894;DHT22;30625;52.206;21.030;2023-02-28T08:57:02;6.40;68.60
44894;DHT22;30625;52.206;21.030;2023-02-28T08:59:28;6.40;69.10
44894;DHT22;30625;52.206;21.030;2023-02-28T09:01:54;5.90;70.20
44894;DHT22;30625;52.206;21.030;2023-02-28T09:04:20;6.10;70.20
44894;DHT22;30625;52.206;21.030;2023-02-28T09:06:45;6.30;68.50
44894;DHT22;30625;52.206;21.030;2023-02-28T09:09:11;6.50;68.20
44894;DHT22;30625;52.206;21.030;2023-02-28T09:11:37;8.10;68.60
44894;DHT22;30625;52.206;21.030;2023-02-28T09:14:03;6.50;69.30
44894;DHT22;30625;52.206;21.030;2023-02-28T09:16:30;6.00;68.80
44894;DHT22;30625;52.206;21.030;2023-02-28T09:18:56;5.90;69.70
44894;DHT22;30625;52.206;21.030;2023-02-28T09:21:22;6.30;71.40
44894;DHT22;30625;52.206;21.030;2023-02-28T09:23:49;7.00;69.70
44894;DHT22;30625;52.206;21.030;2023-02-28T09:26:19;7.50;69.10
44894;DHT22;30625;52.206;21.030;2023-02-28T09:28:45;8.30;67.80
44894;DHT22;30625;52.206;21.030;2023-02-28T09:31:16;8.40;67.20
44894;DHT22;30625;52.206;21.030;2023-02-28T09:33:46;8.10;63.90
44894;DHT22;30625;52.206;21.030;2023-02-28T09:36:12;8.40;63.40
44894;DHT22;30625;52.206;21.030;2023-02-28T09:38:38;8.40;64.00
44894;DHT22;30625;52.206;21.030;2023-02-28T09:41:14;8.50;64.10
44894;DHT22;30625;52.206;21.030;2023-02-28T09:43:44;9.30;64.20
44894;DHT22;30625;52.206;21.030;2023-02-28T09:46:29;9.90;64.40
44894;DHT22;30625;52.206;21.030;2023-02-28T09:48:57;9.70;62.20
44894;DHT22;30625;52.206;21.030;2023-02-28T09:51:40;10.00;62.50
44894;DHT22;30625;52.206;21.030;2023-02-28T09:54:17;10.10;61.80
44894;DHT22;30625;52.206;21.030;2023-02-28T09:56:51;9.80;59.20
44894;DHT22;30625;52.206;21.030;2023-02-28T09:59:39;9.10;60.30
44894;DHT22;30625;52.206;21.030;2023-02-28T10:05:15;8.90;62.40
44894;DHT22;30625;52.206;21.030;2023-02-28T10:08:01;10.10;62.30
44894;DHT22;30625;52.206;21.030;2023-02-28T10:10:59;11.10;59.80
44894;DHT22;30625;52.206;21.030;2023-02-28T10:13:38;11.40;58.00
44894;DHT22;30625;52.206;21.030;2023-02-28T10:16:35;11.10;59.20
44894;DHT22;30625;52.206;21.030;2023-02-28T10:19:10;11.20;58.20
44894;DHT22;30625;52.206;21.030;2023-02-28T10:21:42;11.40;57.50
44894;DHT22;30625;52.206;21.030;2023-02-28T10:24:39;11.60;57.50
44894;DHT22;30625;52.206;21.030;2023-02-28T10:27:20;11.80;56.50
44894;DHT22;30625;52.206;21.030;2023-02-28T10:29:55;11.20;55.30
44894;DHT22;30625;52.206;21.030;2023-02-28T10:32:24;10.30;56.60
44894;DHT22;30625;52.206;21.030;2023-02-28T10:37:42;9.30;58.50
44894;DHT22;30625;52.206;21.030;2023-02-28T10:40:35;9.00;57.60
44894;DHT22;30625;52.206;21.030;2023-02-28T10:43:05;9.50;58.30
44894;DHT22;30625;52.206;21.030;2023-02-28T10:45:34;9.70;57.70
44894;DHT22;30625;52.206;21.030;2023-02-28T10:50:43;10.60;57.00
44894;DHT22;30625;52.206;21.030;2023-02-28T10:55:40;11.40;55.50
44894;DHT22;30625;52.206;21.030;2023-02-28T10:58:23;11.90;56.20
44894;DHT22;30625;52.206;21.030;2023-02-28T11:00:49;11.80;54.00
44894;DHT22;30625;52.206;21.030;2023-02-28T11:03:28;12.30;53.80
44894;DHT22;30625;52.206;21.030;2023-02-28T11:05:54;12.00;54.00
44894;DHT22;30625;52.206;21.030;2023-02-28T11:08:20;11.60;55.00
44894;DHT22;30625;52.206;21.030;2023-02-28T11:10:48;11.30;55.70
44894;DHT22;30625;52.206;21.030;2023-02-28T11:13:21;11.00;55.50
44894;DHT22;30625;52.206;21.030;2023-02-28T11:15:54;10.80;55.40
44894;DHT22;30625;52.206;21.030;2023-02-28T11:18:29;9.90;56.10
44894;DHT22;30625;52.206;21.030;2023-02-28T11:20:58;9.20;58.40
44894;DHT22;30625;52.206;21.030;2023-02-28T11:23:27;9.00;59.30
44894;DHT22;30625;52.206;21.030;2023-02-28T11:25:55;8.00;60.60
44894;DHT22;30625;52.206;21.030;2023-02-28T11:28:49;7.50;61.40
44894;DHT22;30625;52.206;21.030;2023-02-28T11:31:27;7.30;61.60
44894;DHT22;30625;52.206;21.030;2023-02-28T11:33:55;7.20;62.00
44894;DHT22;30625;52.206;21.030;2023-02-28T11:36:26;7.00;62.50
44894;DHT22;30625;52.206;21.030;2023-02-28T11:38:59;7.10;64.30
44894;DHT22;30625;52.206;21.030;2023-02-28T11:47:19;7.70;63.50
44894;DHT22;30625;52.206;21.030;2023-02-28T11:49:59;7.70;63.00
44894;DHT22;30625;52.206;21.030;2023-02-28T11:55:09;7.90;62.90
44894;DHT22;30625;52.206;21.030;2023-02-28T12:11:40;7.70;63.00
44894;DHT22;30625;52.206;21.030;2023-02-28T12:22:32;7.10;65.10
44894;DHT22;30625;52.206;21.030;2023-02-28T12:27:36;6.70;64.20
44894;DHT22;30625;52.206;21.030;2023-02-28T12:33:02;6.50;65.30
44894;DHT22;30625;52.206;21.030;2023-02-28T12:35:41;6.40;65.50
44894;DHT22;30625;52.206;21.030;2023-02-28T12:38:15;6.40;65.80
44894;DHT22;30625;52.206;21.030;2023-02-28T12:40:48;6.30;67.00
44894;DHT22;30625;52.206;21.030;2023-02-28T12:43:17;6.40;67.10
44894;DHT22;30625;52.206;21.030;2023-02-28T12:45:55;6.30;65.90
44894;DHT22;30625;52.206;21.030;2023-02-28T12:49:18;7.10;66.10
44894;DHT22;30625;52.206;21.030;2023-02-28T12:51:12;6.20;66.90
44894;DHT22;30625;52.206;21.030;2023-02-28T12:53:54;6.20;65.50
44894;DHT22;30625;52.206;21.030;2023-02-28T12:56:48;6.30;67.60
44894;DHT22;30625;52.206;21.030;2023-02-28T13:10:19;6.30;66.40
44894;DHT22;30625;52.206;21.030;2023-02-28T13:12:53;6.50;67.40
44894;DHT22;30625;52.206;21.030;2023-02-28T13:15:28;6.80;66.30
44894;DHT22;30625;52.206;21.030;2023-02-28T13:17:56;6.50;66.70
44894;DHT22;30625;52.206;21.030;2023-02-28T13:20:26;6.50;66.10
44894;DHT22;30625;52.206;21.030;2023-02-28T13:22:54;6.70;66.30
44894;DHT22;30625;52.206;21.030;2023-02-28T13:27:52;7.00;66.70
44894;DHT22;30625;52.206;21.030;2023-02-28T13:33:31;7.20;65.30
44894;DHT22;30625;52.206;21.030;2023-02-28T13:36:12;7.40;65.90
44894;DHT22;30625;52.206;21.030;2023-02-28T13:38:50;7.40;66.70
44894;DHT22;30625;52.206;21.030;2023-02-28T13:49:27;7.00;65.20
44894;DHT22;30625;52.206;21.030;2023-02-28T13:57:59;6.90;67.40
44894;DHT22;30625;52.206;21.030;2023-02-28T14:06:34;6.30;66.40
44894;DHT22;30625;52.206;21.030;2023-02-28T14:09:25;6.20;67.20
44894;DHT22;30625;52.206;21.030;2023-02-28T14:11:53;6.10;68.10
44894;DHT22;30625;52.206;21.030;2023-02-28T14:17:08;5.80;67.40
44894;DHT22;30625;52.206;21.030;2023-02-28T14:19:39;5.70;70.30
44894;DHT22;30625;52.206;21.030;2023-02-28T14:38:05;6.50;72.20
44894;DHT22;30625;52.206;21.030;2023-02-28T14:40:35;5.10;72.10
44894;DHT22;30625;52.206;21.030;2023-02-28T14:43:05;5.10;73.20
44894;DHT22;30625;52.206;21.030;2023-02-28T14:45:34;4.90;71.80
44894;DHT22;30625;52.206;21.030;2023-02-28T14:48:04;4.90;72.30
44894;DHT22;30625;52.206;21.030;2023-02-28T14:50:35;4.90;73.20
44894;DHT22;30625;52.206;21.030;2023-02-28T14:53:02;4.90;72.70
44894;DHT22;30625;52.206;21.030;2023-02-28T14:55:49;4.70;73.10
44894;DHT22;30625;52.206;21.030;2023-02-28T14:58:29;4.70;73.90
44894;DHT22;30625;52.206;21.030;2023-02-28T15:00:58;4.70;73.70
44894;DHT22;30625;52.206;21.030;2023-02-28T15:03:31;4.70;74.10
44894;DHT22;30625;52.206;21.030;2023-02-28T15:05:59;4.70;75.50
44894;DHT22;30625;52.206;21.030;2023-02-28T15:08:26;4.70;74.60
44894;DHT22;30625;52.206;21.030;2023-02-28T15:11:15;4.70;75.60
44894;DHT22;30625;52.206;21.030;2023-02-28T15:13:46;4.70;76.00
44894;DHT22;30625;52.206;21.030;2023-02-28T15:16:36;4.50;75.30
44894;DHT22;30625;52.206;21.030;2023-02-28T15:19:12;4.50;76.10
44894;DHT22;30625;52.206;21.030;2023-02-28T15:21:43;4.40;75.70
44894;DHT22;30625;52.206;21.030;2023-02-28T15:24:26;4.50;75.90
44894;DHT22;30625;52.206;21.030;2023-02-28T15:26:58;4.30;76.50
44894;DHT22;30625;52.206;21.030;2023-02-28T15:29:27;3.10;76.00
44894;DHT22;30625;52.206;21.030;2023-02-28T15:32:01;4.20;77.40
44894;DHT22;30625;52.206;21.030;2023-02-28T15:36:58;4.10;78.70
44894;DHT22;30625;52.206;21.030;2023-02-28T15:39:27;4.10;78.30
44894;DHT22;30625;52.206;21.030;2023-02-28T15:42:10;4.00;78.40
44894;DHT22;30625;52.206;21.030;2023-02-28T15:44:37;5.40;79.80
44894;DHT22;30625;52.206;21.030;2023-02-28T15:47:04;4.00;78.40
44894;DHT22;30625;52.206;21.030;2023-02-28T15:49:40;3.90;78.40
44894;DHT22;30625;52.206;21.030;2023-02-28T15:52:14;4.10;78.30
44894;DHT22;30625;52.206;21.030;2023-02-28T15:54:41;3.80;78.10
44894;DHT22;30625;52.206;21.030;2023-02-28T15:57:15;5.10;80.00
44894;DHT22;30625;52.206;21.030;2023-02-28T15:59:50;3.80;79.50
44894;DHT22;30625;52.206;21.030;2023-02-28T16:02:19;3.70;80.30
44894;DHT22;30625;52.206;21.030;2023-02-28T16:07:43;3.70;81.00
44894;DHT22;30625;52.206;21.030;2023-02-28T16:10:12;3.60;80.90
44894;DHT22;30625;52.206;21.030;2023-02-28T16:12:40;3.60;81.40
44894;DHT22;30625;52.206;21.030;2023-02-28T16:15:18;3.50;81.90
44894;DHT22;30625;52.206;21.030;2023-02-28T16:17:44;3.50;81.70
44894;DHT22;30625;52.206;21.030;2023-02-28T16:20:17;5.20;82.90
44894;DHT22;30625;52.206;21.030;2023-02-28T16:22:44;3.40;81.90
44894;DHT22;30625;52.206;21.030;2023-02-28T16:25:14;3.30;82.20
44894;DHT22;30625;52.206;21.030;2023-02-28T16:27:41;3.30;83.20
44894;DHT22;30625;52.206;21.030;2023-02-28T16:30:09;3.30;83.50
44894;DHT22;30625;52.206;21.030;2023-02-28T16:32:40;3.30;83.20
44894;DHT22;30625;52.206;21.030;2023-02-28T16:35:09;3.20;83.60
44894;DHT22;30625;52.206;21.030;2023-02-28T16:37:35;3.20;83.30
44894;DHT22;30625;52.206;21.030;2023-02-28T16:40:00;3.20;84.80
44894;DHT22;30625;52.206;21.030;2023-02-28T16:42:27;3.10;84.60
44894;DHT22;30625;52.206;21.030;2023-02-28T16:44:54;3.00;84.80
44894;DHT22;30625;52.206;21.030;2023-02-28T16:47:20;3.00;85.00
44894;DHT22;30625;52.206;21.030;2023-02-28T16:49:46;3.00;85.60
44894;DHT22;30625;52.206;21.030;2023-02-28T16:52:13;3.00;85.40
44894;DHT22;30625;52.206;21.030;2023-02-28T16:54:39;2.90;86.60
44894;DHT22;30625;52.206;21.030;2023-02-28T16:57:05;2.80;90.30
44894;DHT22;30625;52.206;21.030;2023-02-28T16:59:31;2.80;87.20
44894;DHT22;30625;52.206;21.030;2023-02-28T17:01:57;2.80;87.40
44894;DHT22;30625;52.206;21.030;2023-02-28T17:04:25;2.80;87.20
44894;DHT22;30625;52.206;21.030;2023-02-28T17:06:50;2.80;87.40
44894;DHT22;30625;52.206;21.030;2023-02-28T17:09:21;2.80;88.00
44894;DHT22;30625;52.206;21.030;2023-02-28T17:11:47;2.80;87.80
44894;DHT22;30625;52.206;21.030;2023-02-28T17:14:14;2.70;88.30
44894;DHT22;30625;52.206;21.030;2023-02-28T17:16:40;2.70;88.20
44894;DHT22;30625;52.206;21.030;2023-02-28T17:19:11;2.60;88.50
44894;DHT22;30625;52.206;21.030;2023-02-28T17:21:37;2.60;89.50
44894;DHT22;30625;52.206;21.030;2023-02-28T17:24:03;2.60;89.30
44894;DHT22;30625;52.206;21.030;2023-02-28T17:26:29;2.60;89.30
44894;DHT22;30625;52.206;21.030;2023-02-28T17:28:56;2.60;89.60
44894;DHT22;30625;52.206;21.030;2023-02-28T17:31:24;2.40;89.90
44894;DHT22;30625;52.206;21.030;2023-02-28T17:33:50;2.50;89.70
44894;DHT22;30625;52.206;21.030;2023-02-28T17:36:22;2.50;90.00
44894;DHT22;30625;52.206;21.030;2023-02-28T17:38:48;2.50;90.20
44894;DHT22;30625;52.206;21.030;2023-02-28T17:41:14;2.50;90.40
44894;DHT22;30625;52.206;21.030;2023-02-28T17:43:42;2.40;90.40
44894;DHT22;30625;52.206;21.030;2023-02-28T17:46:19;2.30;90.60
44894;DHT22;30625;52.206;21.030;2023-02-28T17:48:49;2.30;90.70
44894;DHT22;30625;52.206;21.030;2023-02-28T17:51:16;2.20;90.90
44894;DHT22;30625;52.206;21.030;2023-02-28T17:53:42;2.10;91.10
44894;DHT22;30625;52.206;21.030;2023-02-28T17:56:16;2.10;91.30